Campo Florido, Brazil
Current Conditions -  °F | °C
As of 12:00 PM on Saturday 25 Oct 2014 (Local Time) from SBUR Reporting Station
Light Rain Light Rain  
Wind Chill: 68°   Ceiling: 7000
Heat Index: 68°   Visibility: 2.5mi
Dew Point: 64°   Wind: 9mph
Humidity: 88%   Direction: 130°SE
Pressure: 30.06"   Gusts: NA
Location:  19.76°S, 48.57°W
Report Text: SBUR 251400Z 13008KT 4000 -RA BR SCT005 BKN070 20/18 Q1018
Loading
Personal Weather Stations






























Interactive Weather Map
Tropical Storm Tracking
New forecast layout! Learn more

10-Day Weather Forecast

Advertisements
Track Severe Weather on mobile